Time;durP1;ratioP1;P1;durP2;ratioP2;P2;SDS_P1;SDS_P2;PMS_P1;PMS_P2;Temp;Humidity;BMP_temperature;BMP_pressure;BME280_temperature;BME280_humidity;BME280_pressure;Samples;Min_cycle;Max_cycle;Signal;HPM_P1;HPM_P2
2023/09/28 00:02:38;;;;;;;2.38;1.85;;;11.90;99.90;;;;;;5049289;28;20017;-76
2023/09/28 00:05:12;;;;;;;8.13;2.72;;;11.90;99.90;;;;;;5051402;28;20033;-77
2023/09/28 00:07:45;;;;;;;4.38;2.67;;;11.80;99.90;;;;;;5029373;28;20064;-78
2023/09/28 00:10:13;;;;;;;4.38;2.60;;;11.80;99.90;;;;;;5049707;28;20029;-77
2023/09/28 00:12:40;;;;;;;3.90;2.50;;;11.90;99.90;;;;;;5040161;28;20492;-76
2023/09/28 00:15:08;;;;;;;4.30;3.00;;;11.90;99.90;;;;;;5021905;28;20112;-76
2023/09/28 00:17:34;;;;;;;2.65;2.45;;;11.90;99.90;;;;;;5039274;28;20537;-78
2023/09/28 00:19:59;;;;;;;6.80;2.65;;;12.00;99.90;;;;;;5038097;28;20053;-78
2023/09/28 00:22:25;;;;;;;3.75;2.17;;;12.00;99.90;;;;;;5036374;28;20021;-78
2023/09/28 00:24:50;;;;;;;2.58;2.10;;;11.90;99.90;;;;;;5019038;28;20432;-78
2023/09/28 00:27:17;;;;;;;3.45;2.47;;;11.90;99.90;;;;;;5018476;28;20052;-78
2023/09/28 00:29:46;;;;;;;2.00;1.77;;;11.80;99.90;;;;;;5045604;28;20029;-79
2023/09/28 00:32:12;;;;;;;4.88;2.05;;;11.80;99.90;;;;;;5030863;28;20029;-77
2023/09/28 00:34:38;;;;;;;3.17;2.03;;;11.80;99.90;;;;;;5048363;28;20038;-78
2023/09/28 00:37:04;;;;;;;3.60;2.85;;;11.80;99.90;;;;;;5031789;28;20026;-78
2023/09/28 00:39:31;;;;;;;2.58;2.38;;;11.80;99.90;;;;;;5047886;28;20129;-77
2023/09/28 00:41:58;;;;;;;4.07;2.60;;;11.70;99.90;;;;;;5031002;28;20051;-78
2023/09/28 00:44:24;;;;;;;3.65;2.78;;;11.70;99.90;;;;;;5029040;28;20040;-79
2023/09/28 00:46:50;;;;;;;4.93;1.90;;;11.70;99.90;;;;;;5044923;28;20029;-78
2023/09/28 00:49:16;;;;;;;2.28;2.08;;;11.70;99.90;;;;;;5046023;28;20350;-78
2023/09/28 00:51:47;;;;;;;2.53;1.90;;;11.70;99.90;;;;;;5043150;28;20362;-78
2023/09/28 00:54:13;;;;;;;4.80;2.45;;;11.70;99.90;;;;;;5018998;28;20397;-78
2023/09/28 00:56:41;;;;;;;5.03;2.22;;;11.90;99.90;;;;;;5019413;28;20461;-77
2023/09/28 00:59:07;;;;;;;24.10;3.97;;;11.90;99.90;;;;;;5018733;28;20030;-78
2023/09/28 01:01:33;;;;;;;4.47;2.47;;;11.80;99.90;;;;;;5018981;28;20473;-77
2023/09/28 01:04:04;;;;;;;3.85;2.35;;;11.80;99.90;;;;;;5018334;28;20025;-78
2023/09/28 01:06:30;;;;;;;2.50;2.08;;;11.80;99.90;;;;;;5035692;28;20025;-77
2023/09/28 01:08:57;;;;;;;1.80;1.70;;;11.80;99.90;;;;;;5022929;28;20048;-77
2023/09/28 01:11:24;;;;;;;5.78;3.20;;;11.80;99.90;;;;;;5040323;28;20017;-77
2023/09/28 01:13:50;;;;;;;3.72;2.38;;;11.80;99.90;;;;;;5020945;28;20383;-77
2023/09/28 01:16:19;;;;;;;3.42;2.63;;;11.90;99.90;;;;;;5038561;28;20018;-78
2023/09/28 01:18:54;;;;;;;3.27;2.27;;;11.90;99.90;;;;;;5024902;28;20010;-78
2023/09/28 01:21:22;;;;;;;2.92;2.47;;;12.00;99.90;;;;;;5041753;28;20683;-78
2023/09/28 01:23:48;;;;;;;2.30;1.90;;;11.90;99.90;;;;;;5018537;28;20072;-78
2023/09/28 01:26:18;;;;;;;4.05;2.67;;;11.90;99.90;;;;;;5037199;28;20021;-78
2023/09/28 01:28:43;;;;;;;;;;;12.00;99.90;;;;;;5021275;28;20081;-78
2023/09/28 01:31:12;;;;;;;2.40;1.95;;;12.00;99.90;;;;;;5021585;28;19948;-77
2023/09/28 01:33:39;;;;;;;2.67;2.47;;;12.10;99.90;;;;;;5042952;28;20025;-77
2023/09/28 01:36:05;;;;;;;5.10;3.03;;;12.10;99.90;;;;;;5044261;28;20025;-78
2023/09/28 01:39:07;;;;;;;4.82;1.67;;;12.10;99.90;;;;;;5026885;28;20115;-78
2023/09/28 01:41:39;;;;;;;7.43;2.50;;;12.00;99.90;;;;;;5044003;28;20028;-78
2023/09/28 01:44:05;;;;;;;4.47;3.17;;;12.00;99.90;;;;;;5024589;28;20477;-78
2023/09/28 01:46:31;;;;;;;3.50;2.15;;;12.10;99.90;;;;;;5035139;28;20032;-77
2023/09/28 01:48:57;;;;;;;5.25;2.40;;;12.10;99.90;;;;;;5035063;28;20125;-77
2023/09/28 01:51:24;;;;;;;2.70;2.13;;;12.10;99.90;;;;;;5034775;28;20032;-78
2023/09/28 01:53:49;;;;;;;3.22;1.67;;;12.10;99.90;;;;;;5035003;28;20037;-78
2023/09/28 01:56:15;;;;;;;3.10;2.80;;;12.10;99.90;;;;;;5035079;28;20028;-77
2023/09/28 01:58:41;;;;;;;4.85;2.72;;;12.20;99.90;;;;;;5017060;28;20437;-77
2023/09/28 02:01:31;;;;;;;5.30;3.05;;;12.20;99.90;;;;;;5041268;28;20519;-76
2023/09/28 02:03:59;;;;;;;3.17;2.78;;;12.20;99.90;;;;;;5045076;28;20002;-77
2023/09/28 02:06:36;;;;;;;4.97;2.53;;;12.20;99.90;;;;;;5046003;28;20085;-77
2023/09/28 02:09:10;;;;;;;3.30;2.97;;;12.30;99.90;;;;;;5030725;28;20013;-76
2023/09/28 02:11:43;;;;;;;2.42;1.98;;;12.20;99.90;;;;;;5047100;28;20030;-77
2023/09/28 02:14:12;;;;;;;3.35;2.60;;;12.20;99.90;;;;;;5027511;28;20108;-78
2023/09/28 02:16:41;;;;;;;;;;;12.10;99.90;;;;;;5041138;28;20509;-77
2023/09/28 02:19:11;;;;;;;6.28;2.65;;;12.10;99.90;;;;;;5023942;28;20341;-78
2023/09/28 02:21:36;;;;;;;2.88;2.20;;;12.10;99.90;;;;;;5025960;28;20033;-77
2023/09/28 02:24:02;;;;;;;4.05;2.90;;;12.00;99.90;;;;;;5041102;28;20021;-78
2023/09/28 02:26:27;;;;;;;5.68;2.13;;;11.90;99.90;;;;;;5041218;28;20026;-78
2023/09/28 02:28:53;;;;;;;7.93;3.45;;;11.90;99.90;;;;;;5044108;28;20010;-79
2023/09/28 02:31:19;;;;;;;3.38;2.40;;;12.00;99.90;;;;;;5029298;28;20029;-78
2023/09/28 02:33:47;;;;;;;4.00;2.47;;;12.00;99.90;;;;;;5044842;28;20465;-77
2023/09/28 02:36:14;;;;;;;2.72;2.22;;;12.00;99.90;;;;;;5030784;28;20117;-77
2023/09/28 02:38:48;;;;;;;5.20;2.80;;;11.90;99.90;;;;;;5048407;28;20025;-78
2023/09/28 02:41:18;;;;;;;6.57;2.58;;;11.90;99.90;;;;;;5049909;28;20033;-80
2023/09/28 02:43:44;;;;;;;3.30;2.42;;;11.80;99.90;;;;;;5031878;28;20085;-79
2023/09/28 02:46:10;;;;;;;4.07;2.13;;;11.90;99.90;;;;;;5029452;28;20030;-76
2023/09/28 02:48:35;;;;;;;5.22;2.10;;;12.00;99.90;;;;;;5046769;28;20053;-78
2023/09/28 02:51:03;;;;;;;5.93;3.55;;;11.90;99.90;;;;;;5048585;28;20025;-78
2023/09/28 02:53:29;;;;;;;2.25;1.88;;;11.90;99.90;;;;;;5039248;28;20040;-78
2023/09/28 02:55:55;;;;;;;4.20;2.03;;;11.90;99.90;;;;;;5036818;28;20108;-77
2023/09/28 02:58:27;;;;;;;2.83;2.63;;;12.00;99.90;;;;;;5039687;28;20061;-77
2023/09/28 03:01:00;;;;;;;4.00;2.50;;;12.00;99.90;;;;;;5042008;28;20020;-77
2023/09/28 03:03:28;;;;;;;3.88;2.72;;;12.00;99.90;;;;;;5019054;28;20124;-78
2023/09/28 03:05:56;;;;;;;3.63;2.33;;;12.00;99.90;;;;;;5017703;28;20489;-78
2023/09/28 03:08:21;;;;;;;5.53;2.33;;;12.00;99.90;;;;;;5018235;28;20032;-76
2023/09/28 03:10:47;;;;;;;2.25;2.05;;;12.00;99.90;;;;;;5021637;28;20151;-76
2023/09/28 03:13:13;;;;;;;2.38;1.65;;;12.00;99.90;;;;;;5039380;28;20029;-78
2023/09/28 03:15:43;;;;;;;4.22;2.97;;;12.00;99.90;;;;;;5041726;28;20029;-76
2023/09/28 03:18:10;;;;;;;2.53;2.08;;;12.00;99.90;;;;;;5037647;28;20037;-78
2023/09/28 03:20:36;;;;;;;2.65;2.20;;;11.90;99.90;;;;;;5037351;28;20029;-77
2023/09/28 03:23:02;;;;;;;3.75;2.83;;;11.90;99.90;;;;;;5037546;28;20026;-77
2023/09/28 03:25:27;;;;;;;6.78;2.92;;;11.80;99.90;;;;;;5037539;28;20448;-77
2023/09/28 03:27:55;;;;;;;2.45;2.13;;;11.90;99.90;;;;;;5019386;28;20032;-78
2023/09/28 03:30:25;;;;;;;3.75;2.83;;;11.90;99.90;;;;;;5037140;28;20025;-78
2023/09/28 03:32:51;;;;;;;3.65;2.47;;;12.00;99.90;;;;;;5037137;28;20037;-77
2023/09/28 03:35:17;;;;;;;8.05;2.28;;;12.00;99.90;;;;;;5037182;28;20029;-78
2023/09/28 03:37:44;;;;;;;2.88;2.50;;;12.00;99.90;;;;;;5037197;28;20081;-78
2023/09/28 03:40:11;;;;;;;2.45;2.25;;;12.10;99.90;;;;;;5037360;28;20042;-76
2023/09/28 03:42:43;;;;;;;3.80;2.55;;;12.00;99.90;;;;;;5037079;28;20478;-78
2023/09/28 03:45:11;;;;;;;2.85;2.65;;;12.00;99.90;;;;;;5037158;28;20040;-78
2023/09/28 03:47:41;;;;;;;3.17;2.55;;;11.90;99.90;;;;;;5036823;28;20053;-77
2023/09/28 03:50:11;;;;;;;2.78;2.45;;;11.90;99.90;;;;;;5018755;28;20053;-76
2023/09/28 03:52:37;;;;;;;2.35;2.15;;;11.80;99.90;;;;;;5036130;28;20022;-78
2023/09/28 03:55:04;;;;;;;4.07;2.78;;;11.80;99.90;;;;;;5018720;28;20508;-78
2023/09/28 03:57:30;;;;;;;4.10;2.17;;;11.70;99.90;;;;;;5036272;28;20025;-78
2023/09/28 03:59:56;;;;;;;2.50;2.30;;;11.80;99.90;;;;;;5036443;28;20033;-77
2023/09/28 04:02:28;;;;;;;2.55;2.28;;;11.80;99.90;;;;;;5020359;28;20523;-78
2023/09/28 04:04:55;;;;;;;1.73;1.60;;;11.70;99.90;;;;;;5020045;28;20031;-77
2023/09/28 04:07:21;;;;;;;2.10;1.77;;;11.60;99.90;;;;;;5019568;28;20029;-78
2023/09/28 04:09:47;;;;;;;1.75;1.65;;;11.50;99.90;;;;;;5037170;28;20080;-78
2023/09/28 04:12:13;;;;;;;3.78;1.65;;;11.30;99.90;;;;;;5019489;28;20092;-77
2023/09/28 04:14:38;;;;;;;4.05;2.03;;;11.30;99.90;;;;;;5019348;28;20076;-78
2023/09/28 04:17:04;;;;;;;5.03;2.33;;;11.30;99.90;;;;;;5037801;28;20101;-77
2023/09/28 04:20:00;;;;;;;2.38;2.17;;;11.20;99.90;;;;;;5020358;28;20125;-77
2023/09/28 04:22:43;;;;;;;4.45;2.15;;;11.10;99.90;;;;;;5033819;28;20021;-77
2023/09/28 04:25:26;;;;;;;5.28;3.50;;;11.00;99.90;;;;;;5052487;28;20033;-77
2023/09/28 04:28:06;;;;;;;4.03;2.95;;;10.90;99.90;;;;;;5049150;28;20049;-76
2023/09/28 04:30:34;;;;;;;3.70;2.83;;;10.80;99.90;;;;;;5050115;28;20072;-80
2023/09/28 04:33:05;;;;;;;3.00;2.45;;;10.70;99.90;;;;;;5044325;28;20029;-78
2023/09/28 04:35:33;;;;;;;2.35;2.15;;;10.70;99.90;;;;;;5044474;28;20075;-77
2023/09/28 04:38:01;;;;;;;4.55;3.28;;;10.70;99.90;;;;;;5045542;28;20129;-77
2023/09/28 04:40:48;;;;;;;4.53;2.58;;;10.70;99.90;;;;;;5012126;28;20042;-77
2023/09/28 04:43:17;;;;;;;16.00;3.70;;;10.70;99.90;;;;;;5044872;28;20029;-77
2023/09/28 04:45:57;;;;;;;2.80;2.60;;;10.60;99.90;;;;;;5046585;28;20101;-77
2023/09/28 04:48:29;;;;;;;9.07;4.18;;;10.70;99.90;;;;;;5044440;28;20049;-78
2023/09/28 04:51:01;;;;;;;4.57;3.67;;;10.70;99.90;;;;;;5030217;28;20022;-77
2023/09/28 04:53:30;;;;;;;4.60;2.70;;;10.60;99.90;;;;;;5031586;28;20276;-76
2023/09/28 04:55:56;;;;;;;3.40;3.10;;;10.70;99.90;;;;;;5047653;28;20367;-76
2023/09/28 04:58:22;;;;;;;2.72;2.50;;;10.60;99.90;;;;;;5024430;28;20025;-78
2023/09/28 05:00:48;;;;;;;11.27;3.30;;;10.60;99.90;;;;;;5040225;28;20025;-78
2023/09/28 05:03:13;;;;;;;2.05;1.70;;;10.60;99.90;;;;;;5026779;28;20478;-77
2023/09/28 05:05:39;;;;;;;2.33;2.13;;;10.70;99.90;;;;;;5044152;28;20059;-77
2023/09/28 05:11:31;;;;;;;6.70;2.97;;;10.60;99.90;;;;;;5043147;28;20036;-78
2023/09/28 05:14:25;;;;;;;2.90;2.28;;;10.70;99.90;;;;;;5052846;28;20032;-77
2023/09/28 05:16:55;;;;;;;3.40;2.40;;;10.70;99.90;;;;;;5052782;28;20018;-78
2023/09/28 05:19:41;;;;;;;2.53;2.33;;;10.80;99.90;;;;;;5052467;28;20018;-77
2023/09/28 05:22:28;;;;;;;4.43;2.47;;;10.80;99.90;;;;;;5053096;28;20259;-76
2023/09/28 05:25:18;;;;;;;9.55;2.22;;;10.80;99.90;;;;;;5036154;28;20017;-77
2023/09/28 05:27:48;;;;;;;3.58;2.30;;;10.70;99.90;;;;;;5044271;28;20038;-76
2023/09/28 05:30:14;;;;;;;3.20;2.10;;;10.70;99.90;;;;;;5052104;28;20030;-78
2023/09/28 05:32:39;;;;;;;8.57;3.33;;;10.70;99.90;;;;;;5047889;28;20112;-81
2023/09/28 05:35:06;;;;;;;3.55;2.10;;;10.80;99.90;;;;;;5025222;28;20072;-79
2023/09/28 05:37:32;;;;;;;5.75;2.45;;;10.80;99.90;;;;;;5041889;28;20370;-79
2023/09/28 05:40:00;;;;;;;3.58;2.17;;;10.70;99.90;;;;;;5025555;28;20706;-81
2023/09/28 05:42:26;;;;;;;3.83;2.55;;;10.80;99.90;;;;;;5006240;28;20052;-79
2023/09/28 05:44:52;;;;;;;3.78;2.63;;;10.80;99.90;;;;;;5024759;28;20033;-79
2023/09/28 05:47:20;;;;;;;2.15;2.05;;;10.80;99.90;;;;;;5021720;28;20045;-79
2023/09/28 05:49:45;;;;;;;2.17;1.92;;;10.80;99.90;;;;;;5027719;28;20175;-81
2023/09/28 05:52:11;;;;;;;1.90;1.70;;;10.80;99.90;;;;;;5034979;28;20501;-80
2023/09/28 05:54:37;;;;;;;2.30;1.65;;;10.70;99.90;;;;;;5037281;28;20024;-81
2023/09/28 05:57:04;;;;;;;2.95;2.33;;;10.60;99.90;;;;;;5052361;28;20022;-82
2023/09/28 05:59:29;;;;;;;2.90;2.25;;;10.60;99.90;;;;;;5053215;28;20031;-81
2023/09/28 06:01:56;;;;;;;2.88;1.83;;;10.60;99.90;;;;;;5036309;28;20025;-82
2023/09/28 06:04:22;;;;;;;8.80;2.20;;;10.50;99.90;;;;;;5038530;28;20053;-82
2023/09/28 06:06:54;;;;;;;1.75;1.65;;;10.50;99.90;;;;;;5057535;28;20026;-82
2023/09/28 06:09:20;;;;;;;2.53;2.00;;;10.50;99.90;;;;;;5037557;28;20029;-81
2023/09/28 06:11:46;;;;;;;3.88;2.65;;;10.50;99.90;;;;;;5036454;28;20084;-81
2023/09/28 06:14:15;;;;;;;2.13;1.98;;;10.50;99.90;;;;;;5035637;28;20041;-81
2023/09/28 06:16:44;;;;;;;4.57;3.15;;;10.50;99.90;;;;;;5037366;28;20033;-81
2023/09/28 06:19:12;;;;;;;2.80;2.58;;;10.50;99.90;;;;;;5051129;28;20017;-81
2023/09/28 06:21:38;;;;;;;1.58;1.48;;;10.60;99.90;;;;;;5037818;28;20069;-82
2023/09/28 06:24:05;;;;;;;2.85;2.53;;;10.50;99.90;;;;;;5039043;28;20005;-81
2023/09/28 06:26:32;;;;;;;2.72;2.20;;;10.50;99.90;;;;;;5036272;28;20044;-81
2023/09/28 06:29:07;;;;;;;2.70;2.20;;;10.60;99.90;;;;;;5020893;28;20060;-80
2023/09/28 06:34:55;;;;;;;2.10;1.90;;;10.70;99.90;;;;;;5056881;28;20048;-82
2023/09/28 06:37:23;;;;;;;3.35;2.53;;;10.80;99.90;;;;;;5034732;28;20029;-80
2023/09/28 06:39:48;;;;;;;4.30;3.13;;;10.80;99.90;;;;;;5035620;28;20013;-81
2023/09/28 06:42:14;;;;;;;2.60;2.40;;;10.80;99.90;;;;;;5035062;28;20022;-80
2023/09/28 06:44:40;;;;;;;14.80;2.13;;;11.00;99.90;;;;;;5039232;28;20025;-80
2023/09/28 06:47:06;;;;;;;2.55;2.35;;;11.10;99.90;;;;;;5039140;28;20076;-81
2023/09/28 06:49:32;;;;;;;4.13;2.92;;;11.10;99.90;;;;;;5060620;28;20019;-81
2023/09/28 06:51:58;;;;;;;1.92;1.67;;;11.20;99.90;;;;;;5042542;28;20093;-82
2023/09/28 06:54:23;;;;;;;1.80;1.60;;;11.30;99.90;;;;;;5037831;28;20040;-81
2023/09/28 06:56:49;;;;;;;2.15;1.98;;;11.50;99.90;;;;;;5039637;28;20032;-82
2023/09/28 06:59:15;;;;;;;3.10;2.58;;;11.70;99.90;;;;;;5057070;28;20029;-82
2023/09/28 07:01:40;;;;;;;1.92;1.73;;;11.80;99.90;;;;;;5056067;28;20056;-81
2023/09/28 07:04:06;;;;;;;4.15;2.67;;;11.90;99.90;;;;;;5040302;28;20025;-81
2023/09/28 07:06:33;;;;;;;3.20;2.75;;;12.10;99.90;;;;;;5038791;28;20112;-81
2023/09/28 07:08:59;;;;;;;4.57;3.10;;;12.20;99.90;;;;;;5056359;28;20029;-81
2023/09/28 07:11:26;;;;;;;5.38;2.90;;;12.30;99.90;;;;;;5059699;28;20010;-81
2023/09/28 07:13:52;;;;;;;3.85;2.22;;;12.40;99.90;;;;;;5041186;28;20032;-81
2023/09/28 07:16:17;;;;;;;4.78;3.17;;;12.50;99.90;;;;;;5036124;28;20025;-82
2023/09/28 07:18:43;;;;;;;2.90;2.55;;;12.70;99.90;;;;;;5041775;28;20032;-81
2023/09/28 07:21:09;;;;;;;4.10;3.70;;;12.80;99.90;;;;;;5230147;23;20011;-81
2023/09/28 07:23:36;;;;;;;4.10;2.85;;;13.00;99.90;;;;;;5043297;28;20041;-82
2023/09/28 07:26:02;;;;;;;4.53;3.00;;;13.20;99.90;;;;;;5058781;28;20030;-81
2023/09/28 07:28:28;;;;;;;7.78;3.25;;;13.30;99.90;;;;;;5026302;28;20026;-82
2023/09/28 07:30:54;;;;;;;6.93;3.75;;;13.50;99.90;;;;;;5038086;28;20470;-82
2023/09/28 07:33:20;;;;;;;5.30;3.78;;;13.60;99.90;;;;;;5020496;28;20040;-83
2023/09/28 07:35:46;;;;;;;2.78;2.53;;;13.80;99.90;;;;;;5018905;28;20028;-84
2023/09/28 07:38:12;;;;;;;4.65;2.35;;;14.00;99.90;;;;;;5018663;28;20029;-84
2023/09/28 07:40:38;;;;;;;5.10;3.03;;;14.20;99.90;;;;;;5036160;28;20021;-83
2023/09/28 07:43:04;;;;;;;4.72;2.45;;;14.40;99.90;;;;;;5018248;28;20032;-84
2023/09/28 07:45:30;;;;;;;5.65;1.98;;;14.70;99.90;;;;;;5036001;28;20025;-82
2023/09/28 07:47:56;;;;;;;4.03;2.45;;;15.00;99.90;;;;;;5018221;28;20079;-84
2023/09/28 07:50:21;;;;;;;2.30;2.03;;;15.30;99.90;;;;;;5018344;28;20448;-83
2023/09/28 07:52:47;;;;;;;4.75;1.98;;;15.40;99.90;;;;;;5018598;28;20034;-83
2023/09/28 07:55:14;;;;;;;4.20;2.42;;;15.60;99.90;;;;;;5035508;28;20095;-82
2023/09/28 07:57:40;;;;;;;3.92;2.80;;;15.70;99.90;;;;;;5018332;28;20080;-83
2023/09/28 08:00:07;;;;;;;3.38;2.78;;;15.90;99.90;;;;;;5018105;28;20450;-82
2023/09/28 08:02:33;;;;;;;3.17;2.33;;;16.00;99.90;;;;;;5018062;28;20033;-84
2023/09/28 08:04:58;;;;;;;4.13;2.30;;;16.20;99.90;;;;;;5018102;28;20022;-82
2023/09/28 08:07:24;;;;;;;1.95;1.85;;;16.30;99.90;;;;;;5017407;28;20029;-78
2023/09/28 08:09:51;;;;;;;2.42;2.13;;;16.40;99.90;;;;;;5017094;28;20028;-79
2023/09/28 08:12:17;;;;;;;6.63;2.92;;;16.60;99.90;;;;;;5035412;28;20049;-83
2023/09/28 08:14:42;;;;;;;5.32;2.35;;;16.70;99.90;;;;;;5034910;28;20076;-79
2023/09/28 08:17:09;;;;;;;4.00;2.00;;;16.60;99.90;;;;;;5034947;28;20026;-80
2023/09/28 08:19:36;;;;;;;1.85;1.75;;;16.70;99.90;;;;;;5035021;28;20470;-81
2023/09/28 08:22:03;;;;;;;3.22;1.92;;;16.80;99.90;;;;;;5017046;28;20060;-77
2023/09/28 08:24:29;;;;;;;3.67;2.20;;;17.00;99.90;;;;;;5016726;28;20035;-78
2023/09/28 08:26:55;;;;;;;2.40;1.38;;;17.20;99.90;;;;;;5034653;28;20104;-78
2023/09/28 08:29:21;;;;;;;3.75;1.95;;;17.40;99.90;;;;;;5016882;28;20108;-82
2023/09/28 08:31:46;;;;;;;3.90;2.35;;;18.10;99.90;;;;;;5016982;28;20120;-81
2023/09/28 08:34:13;;;;;;;3.97;1.40;;;18.60;99.90;;;;;;5017062;28;20037;-85
2023/09/28 08:36:38;;;;;;;4.10;2.00;;;18.80;99.90;;;;;;5017143;28;20033;-81
2023/09/28 08:39:06;;;;;;;2.03;1.90;;;19.00;99.90;;;;;;5034785;28;20026;-83
2023/09/28 08:41:46;;;;;;;2.15;1.95;;;19.20;99.90;;;;;;5017040;28;20018;-84
2023/09/28 08:44:12;;;;;;;4.95;1.60;;;19.60;99.90;;;;;;5016940;28;20025;-80
2023/09/28 08:46:39;;;;;;;5.88;2.10;;;19.50;99.90;;;;;;5017192;28;20036;-81
2023/09/28 08:49:10;;;;;;;3.15;2.83;;;19.40;99.90;;;;;;5017062;28;20060;-81
2023/09/28 08:51:38;;;;;;;5.32;1.70;;;19.10;99.90;;;;;;5034601;28;20017;-80
2023/09/28 08:54:07;;;;;;;5.07;1.95;;;18.90;99.90;;;;;;5016737;28;20043;-79
2023/09/28 08:56:35;;;;;;;4.03;1.75;;;18.80;99.90;;;;;;5017282;28;20532;-84
2023/09/28 08:59:02;;;;;;;3.55;2.20;;;18.80;99.90;;;;;;5035615;28;20454;-82
2023/09/28 09:01:29;;;;;;;3.13;1.90;;;18.80;99.90;;;;;;5040003;28;20052;-80
2023/09/28 09:03:56;;;;;;;2.30;1.55;;;18.70;99.90;;;;;;5040558;28;20403;-78
2023/09/28 09:06:23;;;;;;;5.85;2.78;;;19.10;99.90;;;;;;5017051;28;20120;-79
2023/09/28 09:08:50;;;;;;;4.43;2.10;;;18.80;99.90;;;;;;5016160;28;20033;-80
2023/09/28 09:11:16;;;;;;;2.42;2.08;;;18.90;99.90;;;;;;5016117;28;20017;-80
2023/09/28 09:13:55;;;;;;;4.40;2.13;;;19.10;99.90;;;;;;5016196;28;20037;-80
2023/09/28 09:16:27;;;;;;;4.82;2.08;;;19.30;99.90;;;;;;5015970;28;20028;-80
2023/09/28 09:18:53;;;;;;;11.57;2.58;;;19.40;99.90;;;;;;5015870;28;20034;-80
2023/09/28 09:21:19;;;;;;;3.35;2.30;;;19.60;99.90;;;;;;5033392;28;20545;-80
2023/09/28 09:24:05;;;;;;;4.40;2.42;;;19.80;99.90;;;;;;5033172;28;20029;-77
2023/09/28 09:26:44;;;;;;;2.35;1.73;;;20.00;99.90;;;;;;5015510;28;20180;-80
2023/09/28 09:29:12;;;;;;;3.70;2.20;;;20.20;99.90;;;;;;5015845;28;20025;-80
2023/09/28 09:31:47;;;;;;;12.43;2.53;;;20.60;99.90;;;;;;5015664;28;20519;-80
2023/09/28 09:34:18;;;;;;;3.92;1.95;;;20.90;99.90;;;;;;5015371;28;20048;-80
2023/09/28 09:36:58;;;;;;;2.63;1.73;;;21.20;99.90;;;;;;5015583;28;20026;-79
2023/09/28 09:39:25;;;;;;;5.28;2.47;;;21.30;99.90;;;;;;5015435;28;20026;-80
2023/09/28 09:41:55;;;;;;;1.77;1.45;;;21.60;99.90;;;;;;5015772;28;20508;-80
2023/09/28 09:44:22;;;;;;;2.97;2.08;;;21.80;99.90;;;;;;5015876;28;20033;-79
2023/09/28 09:46:50;;;;;;;4.00;2.17;;;22.00;99.90;;;;;;5015751;28;20498;-79
2023/09/28 09:49:19;;;;;;;3.45;2.33;;;22.20;99.20;;;;;;5015859;28;20033;-79
2023/09/28 09:51:45;;;;;;;;;;;22.40;98.00;;;;;;5015892;28;20028;-79
2023/09/28 09:54:13;;;;;;;4.10;1.70;;;22.40;97.90;;;;;;5032941;28;19999;-79
2023/09/28 09:56:44;;;;;;;2.58;1.63;;;22.60;97.60;;;;;;5015336;28;20065;-80
2023/09/28 09:59:13;;;;;;;4.72;1.92;;;22.80;95.30;;;;;;5033465;28;20018;-79
2023/09/28 10:01:42;;;;;;;2.25;1.42;;;22.90;93.60;;;;;;5015594;28;20021;-79
2023/09/28 10:04:12;;;;;;;;;;;23.00;92.20;;;;;;5033833;28;20026;-80
2023/09/28 10:06:42;;;;;;;3.45;2.00;;;23.00;91.90;;;;;;5015817;28;19905;-79
2023/09/28 10:09:10;;;;;;;4.15;1.90;;;23.00;91.30;;;;;;5015228;28;20018;-79
2023/09/28 10:11:40;;;;;;;1.92;1.73;;;23.10;89.60;;;;;;5033017;28;20044;-82
2023/09/28 10:14:08;;;;;;;4.63;1.67;;;23.30;90.20;;;;;;5015226;28;20033;-80
2023/09/28 10:16:36;;;;;;;3.25;2.13;;;23.40;85.70;;;;;;5032809;28;20045;-79
2023/09/28 10:19:04;;;;;;;3.17;1.98;;;23.60;86.20;;;;;;5016910;28;20077;-80
2023/09/28 10:21:37;;;;;;;2.50;2.03;;;23.60;85.70;;;;;;5019239;28;20045;-80
2023/09/28 10:24:11;;;;;;;2.10;1.42;;;23.70;84.00;;;;;;5019709;28;20025;-82
2023/09/28 10:26:38;;;;;;;3.63;1.40;;;23.70;85.10;;;;;;5019539;28;20083;-79
2023/09/28 10:29:09;;;;;;;2.72;1.45;;;23.90;83.70;;;;;;5019405;28;20116;-79
2023/09/28 10:31:41;;;;;;;3.25;2.03;;;24.00;83.60;;;;;;5019102;28;20104;-80
2023/09/28 10:34:08;;;;;;;2.60;1.35;;;24.30;83.10;;;;;;5036971;28;20072;-80
2023/09/28 10:36:35;;;;;;;2.63;2.00;;;24.40;83.60;;;;;;5037037;28;20025;-80
2023/09/28 10:39:17;;;;;;;4.47;1.42;;;24.50;83.20;;;;;;5019376;28;20095;-79
2023/09/28 10:41:45;;;;;;;2.92;1.92;;;24.60;83.40;;;;;;5036796;28;20028;-80
2023/09/28 10:44:21;;;;;;;1.92;1.83;;;24.50;82.00;;;;;;5019201;28;20029;-80
2023/09/28 10:46:49;;;;;;;4.63;1.95;;;24.30;81.40;;;;;;5018817;28;20040;-80
2023/09/28 10:49:26;;;;;;;3.08;2.17;;;24.40;79.80;;;;;;5018596;28;20108;-80
2023/09/28 10:51:52;;;;;;;7.85;2.38;;;24.50;80.50;;;;;;5036359;28;20101;-79
2023/09/28 10:54:19;;;;;;;2.33;2.00;;;24.60;81.90;;;;;;5018514;28;20785;-79
2023/09/28 10:56:51;;;;;;;2.08;1.65;;;24.70;79.20;;;;;;5018675;28;20033;-79
2023/09/28 10:59:21;;;;;;;2.75;1.73;;;24.80;79.20;;;;;;5018593;28;20028;-79
2023/09/28 11:01:48;;;;;;;2.65;1.77;;;24.80;79.20;;;;;;5018409;28;20107;-79
2023/09/28 11:04:15;;;;;;;3.25;1.95;;;24.90;79.30;;;;;;5036170;28;20488;-79
2023/09/28 11:06:43;;;;;;;2.92;1.95;;;25.00;81.10;;;;;;5018501;28;20112;-79
2023/09/28 11:09:09;;;;;;;5.10;2.30;;;25.00;78.90;;;;;;5018646;28;20036;-79
2023/09/28 11:11:37;;;;;;;3.42;1.90;;;25.00;79.50;;;;;;5018557;28;20022;-80
2023/09/28 11:14:05;;;;;;;2.60;1.73;;;24.90;78.30;;;;;;5036096;28;20026;-78
2023/09/28 11:16:38;;;;;;;3.05;2.05;;;24.90;80.50;;;;;;5018253;28;20083;-79
2023/09/28 11:19:04;;;;;;;3.67;2.00;;;24.90;77.40;;;;;;5018133;28;20044;-79
2023/09/28 11:21:31;;;;;;;2.75;1.60;;;24.90;77.50;;;;;;5035823;28;20061;-78
2023/09/28 11:23:57;;;;;;;3.35;1.65;;;25.10;78.40;;;;;;5018060;28;20363;-79
2023/09/28 11:26:23;;;;;;;2.25;1.65;;;25.20;78.80;;;;;;5035584;28;20098;-79
2023/09/28 11:28:50;;;;;;;1.73;1.63;;;25.40;78.00;;;;;;5017836;28;20462;-79
2023/09/28 11:31:16;;;;;;;1.50;1.40;;;25.60;78.40;;;;;;5035317;28;20021;-79
2023/09/28 11:33:44;;;;;;;3.00;1.80;;;25.90;78.90;;;;;;5018044;28;20640;-79
2023/09/28 11:36:21;;;;;;;3.60;2.55;;;26.00;78.30;;;;;;5036047;28;20382;-79
2023/09/28 11:38:48;;;;;;;2.05;1.48;;;26.00;78.60;;;;;;5017849;28;20477;-79
2023/09/28 11:41:14;;;;;;;4.32;2.03;;;26.10;79.30;;;;;;5035409;28;20477;-79
2023/09/28 11:43:48;;;;;;;3.13;1.98;;;26.00;78.00;;;;;;5017695;28;20025;-80
2023/09/28 11:46:35;;;;;;;4.32;1.88;;;26.10;76.60;;;;;;5035296;28;20030;-80
2023/09/28 11:49:04;;;;;;;3.35;2.10;;;26.10;77.20;;;;;;5017608;28;20030;-79
2023/09/28 11:51:32;;;;;;;3.25;2.13;;;26.20;79.30;;;;;;5035226;28;20160;-79
2023/09/28 11:53:58;;;;;;;2.90;1.88;;;26.30;75.70;;;;;;5017616;28;20064;-79
2023/09/28 11:56:23;;;;;;;7.13;2.17;;;26.20;75.90;;;;;;5035475;28;20087;-79
2023/09/28 11:58:49;;;;;;;2.22;1.65;;;26.40;74.80;;;;;;5017768;28;20433;-80
2023/09/28 12:01:15;;;;;;;7.90;2.53;;;26.60;75.70;;;;;;5044757;28;20022;-80
2023/09/28 12:03:40;;;;;;;2.88;2.13;;;27.00;73.50;;;;;;5035877;28;20033;-79
2023/09/28 12:06:06;;;;;;;2.03;1.83;;;27.20;71.70;;;;;;5035084;28;20028;-79
2023/09/28 12:08:32;;;;;;;3.45;1.75;;;28.50;71.50;;;;;;5017310;28;20079;-80
2023/09/28 12:10:58;;;;;;;1.85;1.48;;;30.20;69.10;;;;;;5017479;28;20116;-76
2023/09/28 12:13:24;;;;;;;2.28;1.55;;;31.60;66.10;;;;;;5035172;28;20359;-76
2023/09/28 12:15:50;;;;;;;2.83;1.85;;;33.00;64.70;;;;;;5034939;28;20033;-78
2023/09/28 12:18:16;;;;;;;2.20;1.52;;;33.80;62.40;;;;;;5017186;28;20021;-79
2023/09/28 12:20:42;;;;;;;9.57;1.92;;;34.30;59.00;;;;;;5016959;28;20029;-78
2023/09/28 12:23:08;;;;;;;1.65;1.50;;;34.90;56.70;;;;;;5034574;28;20127;-76
2023/09/28 12:25:37;;;;;;;2.20;1.75;;;35.40;56.70;;;;;;5017094;28;20120;-78
2023/09/28 12:28:03;;;;;;;6.25;1.48;;;35.90;55.70;;;;;;5016939;28;20025;-77
2023/09/28 12:30:30;;;;;;;3.83;1.83;;;35.80;52.10;;;;;;5017052;28;20036;-78
2023/09/28 12:32:57;;;;;;;2.92;1.63;;;35.80;53.80;;;;;;5016888;28;20021;-79
2023/09/28 12:35:23;;;;;;;5.57;2.15;;;36.10;52.70;;;;;;5034605;28;20068;-79
2023/09/28 12:37:49;;;;;;;3.50;2.10;;;36.40;52.30;;;;;;5034403;28;20017;-78
2023/09/28 12:40:17;;;;;;;2.55;1.58;;;36.50;51.20;;;;;;5034504;28;20045;-78
2023/09/28 12:42:43;;;;;;;3.70;1.97;;;36.40;50.80;;;;;;5033449;28;20028;-76
2023/09/28 12:45:09;;;;;;;1.90;1.17;;;36.20;50.10;;;;;;5016655;28;20029;-79
2023/09/28 12:47:34;;;;;;;2.95;1.83;;;36.10;50.10;;;;;;5034384;28;20025;-78
2023/09/28 12:50:02;;;;;;;2.15;1.75;;;36.40;50.10;;;;;;5034546;28;20030;-78
2023/09/28 12:52:27;;;;;;;4.63;1.73;;;36.40;50.10;;;;;;5034603;28;20060;-81
2023/09/28 12:54:53;;;;;;;3.10;1.48;;;36.10;52.00;;;;;;5034251;28;20065;-78
2023/09/28 12:57:19;;;;;;;1.38;1.25;;;36.20;50.60;;;;;;5016670;28;20382;-80
2023/09/28 12:59:47;;;;;;;3.58;1.67;;;36.50;51.00;;;;;;5034210;28;20585;-80
2023/09/28 13:02:14;;;;;;;4.47;1.70;;;37.10;49.30;;;;;;5016586;28;20440;-79